Wetterdaten: aktuell Dienstag, 21.05.2019 23:45
Datum Zeit Auentemp. Feuchte A. Luftdruck Niederschl. Wind Richtung Richtung Sonnenschein UV Windben
21.05.2019 23:45 11,1 C 93 % 1014,0 hPa 0,0 l/m 7,8 km/h NW 313 0 min 0,0 UV-I 16,1 km/h
21.05.2019 22:45 11,2 C 92 % 1013,5 hPa 0,0 l/m 6,7 km/h NW 313 0 min 0,0 UV-I 11,3 km/h
21.05.2019 21:45 11,3 C 92 % 1013,2 hPa 0,2 l/m 6,0 km/h W-NW 295 0 min 0,0 UV-I 17,7 km/h
21.05.2019 20:45 11,4 C 92 % 1012,3 hPa 0,0 l/m 6,6 km/h W 271 0 min 0,0 UV-I 12,9 km/h
21.05.2019 19:45 11,5 C 93 % 1011,3 hPa 0,2 l/m 6,7 km/h W 268 0 min 0,0 UV-I 14,5 km/h
21.05.2019 18:45 11,9 C 92 % 1010,8 hPa 0,0 l/m 10,8 km/h W-NW 292 0 min 0,0 UV-I 20,9 km/h
21.05.2019 17:45 11,9 C 93 % 1010,0 hPa 0,2 l/m 7,7 km/h W 275 0 min 0,0 UV-I 16,1 km/h
21.05.2019 16:45 12,1 C 93 % 1009,5 hPa 0,0 l/m 11,4 km/h W-NW 292 0 min 0,0 UV-I 20,9 km/h
21.05.2019 15:45 11,8 C 94 % 1008,8 hPa 0,8 l/m 8,9 km/h W 279 0 min 0,0 UV-I 24,1 km/h
21.05.2019 14:45 12,0 C 95 % 1008,1 hPa 3,0 l/m 3,8 km/h W 277 0 min 0,0 UV-I 8,0 km/h
21.05.2019 13:45 12,4 C 95 % 1007,5 hPa 1,8 l/m 4,6 km/h W 271 0 min 1,2 UV-I 11,3 km/h
21.05.2019 12:45 12,3 C 94 % 1007,0 hPa 0,6 l/m 6,8 km/h W 272 0 min 1,9 UV-I 12,9 km/h
21.05.2019 11:45 11,8 C 95 % 1006,6 hPa 0,8 l/m 7,1 km/h SW 227 0 min 1,5 UV-I 16,1 km/h
21.05.2019 10:45 11,6 C 95 % 1006,2 hPa 0,8 l/m 5,2 km/h S 188 0 min 0,7 UV-I 12,9 km/h
21.05.2019 09:45 11,3 C 95 % 1006,0 hPa 2,6 l/m 4,9 km/h W 273 0 min 0,8 UV-I 11,3 km/h
21.05.2019 08:45 11,3 C 95 % 1005,4 hPa 1,8 l/m 4,2 km/h W 271 0 min 0,0 UV-I 11,3 km/h
21.05.2019 07:45 11,2 C 94 % 1004,9 hPa 1,2 l/m 6,8 km/h W-SW 244 0 min 0,0 UV-I 14,5 km/h
21.05.2019 06:45 11,4 C 94 % 1004,6 hPa 1,0 l/m 9,7 km/h W 270 0 min 0,0 UV-I 19,3 km/h
21.05.2019 05:45 11,6 C 94 % 1004,1 hPa 1,2 l/m 11,3 km/h W 270 0 min 0,0 UV-I 20,9 km/h
21.05.2019 04:45 11,6 C 95 % 1003,7 hPa 3,6 l/m 12,9 km/h W 270 0 min 0,0 UV-I 25,7 km/h
21.05.2019 03:45 11,7 C 95 % 1003,4 hPa 3,4 l/m 9,7 km/h W 270 0 min 0,0 UV-I 16,1 km/h
21.05.2019 02:45 12,0 C 94 % 1003,3 hPa 1,6 l/m 6,4 km/h W 270 0 min 0,0 UV-I 19,3 km/h
21.05.2019 01:45 12,0 C 94 % 1003,2 hPa 2,2 l/m 6,4 km/h W 270 0 min 0,0 UV-I 12,9 km/h
21.05.2019 00:45 12,3 C 94 % 1003,1 hPa 1,2 l/m 11,3 km/h NW 315 0 min 0,0 UV-I 25,7 km/h
21.05.2019 00:00 12,3 C 95 % 1002,9 hPa 0,0 l/m 8,0 km/h W 270 0 min 0,0 UV-I 17,7 km/h
_ Min-Zeit 23:45 19:00 00:40 - 14:50 - - - - 14:50
Minimum _ 11,1 C 91 % 1002,9 hPa - 2,2 km/h - - - - 6,4 km/h
_ Max-Zeit 13:45 15:30 23:45 14:40 04:45 - - 23:45 12:45 17:55
Maximum _ 12,4 C 95 % 1014,0 hPa 0,6 l/m 12,9 km/h
W
- - 0 min 1,9 UV-I 30,6 km/h
NW
Durchschnitt _ 11,7 C 94 % 1007,3 hPa #28,2 l/m 7,5 km/h W - #0 min. 1,0 UV-I 16,7 km/h